SWR183 WSSS-VTBS
Flight info
| Callsign | SWR183 |
|---|---|
| Flight time | N/A |
| Altitude | 40000 |
| Route | VMR6A VMR B469 VPK M751 VKB M644 ALUMO Y12 ALEMI TUMGA1C |
| Aircraft | MD11/H-SDE1E2E3FGHIJ2J3J4J5M1RWXY/LB1D1 |
Departure
| Time | 2026-05-01 15:01 |
|---|---|
| Airport | Singapore Changi Airport (WSSS) |
Arrival
| Time | N/A |
|---|---|
| Airport | Suvarnabhumi Airport (VTBS) |
| Time | Latitude | Longitude | Altitude | Speed | Heading |
|---|---|---|---|---|---|
| 2026-05-01 14:26 | 1.35427 | 103.98432 | 38 ft | 0 kts | 67° |
| 2026-05-01 14:50 | 1.35419 | 103.98414 | 38 ft | 4 kts | 67° |
| 2026-05-01 14:50 | 1.35391 | 103.98347 | 37 ft | 4 kts | 67° |
| 2026-05-01 14:51 | 1.35381 | 103.98325 | 38 ft | 4 kts | 75° |
| 2026-05-01 14:51 | 1.35393 | 103.98292 | 38 ft | 4 kts | 159° |
| 2026-05-01 14:52 | 1.35410 | 103.98285 | 38 ft | 4 kts | 158° |
| 2026-05-01 14:54 | 1.35400 | 103.98289 | 38 ft | 3 kts | 158° |
| 2026-05-01 14:55 | 1.35372 | 103.98301 | 38 ft | 6 kts | 158° |
| 2026-05-01 14:55 | 1.35325 | 103.98311 | 38 ft | 8 kts | 180° |
| 2026-05-01 14:55 | 1.35265 | 103.98294 | 38 ft | 10 kts | 202° |
| 2026-05-01 14:55 | 1.35192 | 103.98264 | 36 ft | 13 kts | 203° |
| 2026-05-01 14:56 | 1.35126 | 103.98204 | 35 ft | 14 kts | 238° |
| 2026-05-01 14:56 | 1.35069 | 103.98121 | 38 ft | 15 kts | 221° |
| 2026-05-01 14:56 | 1.34970 | 103.98071 | 37 ft | 17 kts | 202° |
| 2026-05-01 14:56 | 1.34860 | 103.98025 | 38 ft | 18 kts | 202° |
| 2026-05-01 14:57 | 1.34752 | 103.97977 | 38 ft | 12 kts | 211° |
| 2026-05-01 14:57 | 1.34741 | 103.97904 | 37 ft | 6 kts | 290° |
| 2026-05-01 14:57 | 1.34757 | 103.97864 | 38 ft | 7 kts | 292° |
| 2026-05-01 14:58 | 1.34773 | 103.97831 | 38 ft | 0 kts | 309° |
| 2026-05-01 14:59 | 1.34776 | 103.97828 | 36 ft | 1 kts | 309° |
| 2026-05-01 14:59 | 1.34784 | 103.97820 | 38 ft | 2 kts | 315° |
| 2026-05-01 14:59 | 1.34799 | 103.97810 | 36 ft | 3 kts | 328° |
| 2026-05-01 14:59 | 1.34828 | 103.97795 | 37 ft | 6 kts | 334° |
| 2026-05-01 15:00 | 1.34920 | 103.97763 | 38 ft | 5 kts | 358° |
| 2026-05-01 15:00 | 1.34958 | 103.97771 | 38 ft | 6 kts | 19° |
| 2026-05-01 15:00 | 1.35023 | 103.97797 | 37 ft | 28 kts | 21° |
| 2026-05-01 15:01 | 1.35618 | 103.98046 | 39 ft | 153 kts | 22° |
| 2026-05-01 15:01 | 1.36744 | 103.98526 | 886 ft | 178 kts | 23° |
| 2026-05-01 15:01 | 1.37832 | 103.99013 | 2571 ft | 168 kts | 24° |
| 2026-05-01 15:01 | 1.38900 | 103.99480 | 4159 ft | 163 kts | 22° |
| 2026-05-01 15:02 | 1.39941 | 103.99909 | 5688 ft | 163 kts | 22° |
| 2026-05-01 15:02 | 1.40298 | 104.00056 | 6165 ft | 165 kts | 22° |
| 2026-05-01 15:02 | 1.42179 | 104.00808 | 7945 ft | 204 kts | 22° |
| 2026-05-01 15:02 | 1.43667 | 104.01392 | 8130 ft | 254 kts | 22° |
| 2026-05-01 15:03 | 1.45433 | 104.02084 | 8580 ft | 283 kts | 23° |
| 2026-05-01 15:03 | 1.47260 | 104.02864 | 9731 ft | 288 kts | 24° |
| 2026-05-01 15:03 | 1.49221 | 104.03519 | 10400 ft | 316 kts | 11° |
| 2026-05-01 15:03 | 1.51539 | 104.03398 | 10655 ft | 353 kts | 345° |
| 2026-05-01 15:04 | 1.53848 | 104.02466 | 11641 ft | 363 kts | 335° |
| 2026-05-01 15:04 | 1.56103 | 104.01277 | 12742 ft | 370 kts | 333° |
| 2026-05-01 15:04 | 1.58372 | 104.00023 | 13833 ft | 376 kts | 333° |
| 2026-05-01 15:04 | 1.60682 | 103.98763 | 14885 ft | 382 kts | 333° |
| 2026-05-01 15:05 | 1.63046 | 103.97507 | 15892 ft | 388 kts | 334° |
| 2026-05-01 15:05 | 1.65457 | 103.96253 | 16870 ft | 394 kts | 335° |
| 2026-05-01 15:05 | 1.67911 | 103.94997 | 17836 ft | 400 kts | 335° |
| 2026-05-01 15:05 | 1.70410 | 103.93729 | 18764 ft | 405 kts | 335° |
| 2026-05-01 15:06 | 1.72947 | 103.92448 | 19646 ft | 412 kts | 335° |
| 2026-05-01 15:06 | 1.75604 | 103.91358 | 20430 ft | 414 kts | 347° |
| 2026-05-01 15:06 | 1.78446 | 103.90828 | 21245 ft | 418 kts | 355° |
| 2026-05-01 15:06 | 1.81320 | 103.90597 | 22017 ft | 423 kts | 359° |
| 2026-05-01 15:07 | 1.84276 | 103.90465 | 22777 ft | 428 kts | 0° |
| 2026-05-01 15:07 | 1.87273 | 103.90347 | 23514 ft | 434 kts | 360° |
| 2026-05-01 15:07 | 1.90310 | 103.90211 | 24235 ft | 440 kts | 359° |
| 2026-05-01 15:07 | 1.93381 | 103.90049 | 24938 ft | 445 kts | 359° |
| 2026-05-01 15:08 | 1.96492 | 103.89866 | 25652 ft | 450 kts | 358° |
| 2026-05-01 15:08 | 1.99629 | 103.89671 | 26348 ft | 454 kts | 358° |
| 2026-05-01 15:08 | 2.02796 | 103.89467 | 27018 ft | 458 kts | 358° |
| 2026-05-01 15:08 | 2.05995 | 103.89258 | 27712 ft | 461 kts | 358° |
| 2026-05-01 15:09 | 2.09211 | 103.89049 | 28298 ft | 467 kts | 357° |
| 2026-05-01 15:09 | 2.12469 | 103.88836 | 28874 ft | 472 kts | 357° |
| 2026-05-01 15:09 | 2.15761 | 103.88621 | 29446 ft | 476 kts | 357° |
| 2026-05-01 15:09 | 2.19080 | 103.88406 | 30032 ft | 480 kts | 357° |
| 2026-05-01 15:10 | 2.22428 | 103.88191 | 30576 ft | 483 kts | 357° |
| 2026-05-01 15:10 | 2.29141 | 103.87768 | 31904 ft | 483 kts | 357° |
| 2026-05-01 15:10 | 2.32494 | 103.87549 | 32597 ft | 482 kts | 357° |
| 2026-05-01 15:11 | 2.35832 | 103.87329 | 33274 ft | 481 kts | 356° |
| 2026-05-01 15:11 | 2.42347 | 103.85940 | 34491 ft | 481 kts | 339° |
| 2026-05-01 15:11 | 2.45406 | 103.84604 | 35132 ft | 479 kts | 335° |
| 2026-05-01 15:12 | 2.48389 | 103.83139 | 35758 ft | 477 kts | 334° |
| 2026-05-01 15:12 | 2.54314 | 103.80194 | 36876 ft | 474 kts | 335° |
| 2026-05-01 15:12 | 2.57289 | 103.78769 | 37381 ft | 473 kts | 335° |
| 2026-05-01 15:13 | 2.66238 | 103.74619 | 38672 ft | 473 kts | 336° |
| 2026-05-01 15:14 | 2.72222 | 103.71874 | 39418 ft | 472 kts | 336° |
| 2026-05-01 15:14 | 2.75212 | 103.70520 | 39767 ft | 472 kts | 337° |
| 2026-05-01 15:14 | 2.81249 | 103.67818 | 39899 ft | 478 kts | 337° |
| 2026-05-01 15:15 | 2.93601 | 103.62302 | 39909 ft | 488 kts | 337° |
| 2026-05-01 15:16 | 3.04938 | 103.57259 | 39905 ft | 487 kts | 337° |
| 2026-05-01 15:18 | 3.20381 | 103.50365 | 39897 ft | 485 kts | 337° |
| 2026-05-01 15:19 | 3.32679 | 103.44829 | 39894 ft | 484 kts | 337° |
| 2026-05-01 15:19 | 3.41886 | 103.40815 | 39887 ft | 483 kts | 339° |
| 2026-05-01 15:20 | 3.51239 | 103.37119 | 39888 ft | 482 kts | 340° |
| 2026-05-01 15:21 | 3.57471 | 103.34658 | 39888 ft | 481 kts | 340° |
| 2026-05-01 15:21 | 3.63703 | 103.32185 | 39888 ft | 481 kts | 339° |
| 2026-05-01 15:22 | 3.73043 | 103.28474 | 39888 ft | 482 kts | 339° |
| 2026-05-01 15:22 | 3.79266 | 103.25998 | 39887 ft | 481 kts | 339° |
| 2026-05-01 15:23 | 3.85493 | 103.23522 | 39888 ft | 481 kts | 339° |
| 2026-05-01 15:23 | 3.91715 | 103.21048 | 39888 ft | 481 kts | 339° |
| 2026-05-01 15:24 | 3.97931 | 103.18576 | 39898 ft | 480 kts | 339° |
| 2026-05-01 15:24 | 4.04144 | 103.16104 | 39905 ft | 480 kts | 339° |
| 2026-05-01 15:25 | 4.10349 | 103.13636 | 39907 ft | 480 kts | 339° |
| 2026-05-01 15:25 | 4.16547 | 103.11170 | 39905 ft | 479 kts | 339° |
| 2026-05-01 15:26 | 4.22740 | 103.08705 | 39896 ft | 478 kts | 339° |
| 2026-05-01 15:26 | 4.28928 | 103.06244 | 39895 ft | 478 kts | 339° |
| 2026-05-01 15:27 | 4.35102 | 103.03788 | 39896 ft | 477 kts | 339° |
| 2026-05-01 15:28 | 4.44346 | 103.00108 | 39899 ft | 476 kts | 339° |
| 2026-05-01 15:28 | 4.50450 | 102.97677 | 39896 ft | 476 kts | 339° |
| 2026-05-01 15:29 | 4.59664 | 102.94003 | 39896 ft | 475 kts | 339° |
| 2026-05-01 15:30 | 4.71938 | 102.89112 | 39896 ft | 475 kts | 339° |
| 2026-05-01 15:31 | 4.90348 | 102.81777 | 39903 ft | 474 kts | 339° |
| 2026-05-01 15:32 | 5.02624 | 102.76896 | 39907 ft | 474 kts | 339° |
| 2026-05-01 15:34 | 5.21039 | 102.69574 | 39907 ft | 475 kts | 339° |